Alden, Michigan
Current Conditions -  °F | °C
As of 8:18 PM on Wednesday 22 Oct 2014 (Local Time) from KACB Reporting Station
Clear Clear  
Wind Chill: 35°   Ceiling: Unl
Heat Index: 35°   Visibility: 10mi
Dew Point: 32°   Wind: 0mph
Humidity: 92%   Direction: NA
Pressure: 30.3"   Gusts: NA
Location:  44.88°N, 85.28°W
Report Text: KACB 230018Z AUTO 00000KT 10SM CLR 01/00 A3030 RMK AO2 T00140002
Loading
Personal Weather Stations






























Interactive Weather Map
Tropical Storm Tracking
New forecast layout! Learn more

10-Day Weather Forecast

Advertisements
Track Severe Weather on mobile